Portada
METAR-TAF:

METAR-TAF

Aeropuertos :

Aeropuerto Internacional de Baréin

Baréin, Bahréin

latitud: 26-16N, longitud: 050-39E, altitud: 2 m

Observación

El informe se hizo hace 34 minutos, a las 23:00 UTC
Viento 2 kt del oeste
Temperatura 32°C
Humedad 56%
Presión 1001 hPa
Visibilidad: 7000 m
Cielo despejado

METAR: OBBI 022300Z 28002KT 7000 SKC 32/22 Q1001 NOSIG

Hora: 02:34 (23:34 UTC)

Pronóstico

El informe se hizo hace 34 minutos, a las 23:00 UTC
Pronóstico válido del 03 a las 00 UTC al 04 a las 06 UTC
Viento 10 kt del oeste-suroeste
Visibilidad: 7000 m
Evolucionando progresivamente
del 03 a las 07 UTC al 03 a las 09 UTC
Viento 10 kt del norte

TAF: OBBI 022300Z 0300/0406 24010KT 7000 NSC BECMG 0307/0309 36010KT

Observaciones y pronósticos meteorológicos de más de 4000 aeropuertos (mensajes METAR y TAF).

Los puntos amarillos y rojos representan las estaciones disponibles.

Ponga el ratón en el punto deseado para ver el nombre de la estación.

Haga clic para ver las observaciones y los pronósticos meteorológicos.

Para cambiar el mapa : haga clic en los botones verdes con una cruz de color negro para hacer un zoom, en el botón verde con un guión para alejar o en las flechas verdes para mapas adyacentes.


METAR-TAF: